Pagina principale
METAR-TAF:

METAR-TAF

Aeroporti :

Teodo, Montenegro

latitudine: 42-24N, longitudine: 018-44E, altezza: 5 m

Osservazione

Il bollettino è stato emesso 25 minuti fa, alle 06:00 UTC
Vento 2 kt da est/nord-est
Temperature 0°C
Umidità 100%
Pressione 1023 hPa
Visibilità: 0400 m
nebbia

METAR: LYTV 200600Z 07002KT 0400 R32/0700D R14/0400D FG NSC 00/00 Q1023 BECMG 800

Ora: 07:25 (06:25 UTC)

Previsione

Il bollettino è stato emesso 1 ora e 25 minuti fa, alle 05:00 UTC
Previsione valida dal 20 alle 06 UTC al 21 alle 06 UTC
Vento 5 kt da sud-ovest
Visibilità 10 km o più
nessuna nube inferiore a 1500 m e nessun cumulonembo
Temporaneamente
dal 20 alle 06 UTC al 20 alle 08 UTC
Visibilità: 3000 m
foschia
Probabilità 30% :
Temporaneamente
dal 20 alle 06 UTC al 20 alle 07 UTC
Visibilità: 0500 m
nebbia

TAF: LYTV 200500Z 2006/2106 22005KT CAVOK TX15/2013Z TN00/2104Z TEMPO 2006/2008 3000 BR PROB30 TEMPO 2006/2007 0500 FG

Osservazioni e previsioni meteorologiche di più di 4000 aeroporti (messaggi METAR e TAF).

Le stazioni disponibili sono rappresentate dai dischi gialli e rossi sulla carta.

Puntare il mouse per vedere il nome della stazione.

Clicca sopra per visualizzare le osservazioni e previsioni meteorologiche.

Per cambiare la mappa : fare clic sui pulsanti verdi con una croce nera per ingrandire, il pulsante verde con un trattino per diminuire, o sulla freccia verde per le mappe adiacenti.


METAR-TAF: